Sadiqabad Weather



Sadiqabad's Current Weather

Temprature 16.75o overcast clouds

overcast clouds

Rain: 0 %

Min Temprature16.75o
Max Temprature16.75o
Humidity56
Wind Speed6.49 m/h
Sun Rise07:01:49
Sun Set17:24:16
Current Time: 12-Dec-2019 01:26:35
Lat/Lon: 28.31, 70.13




Sadiqabad's Geo Location



Sadiqabad's Weather Forecast

Time Overall Temp Min Temp Max Temp Humidity Wind Speed Rain
12-Dec-2019 (Thu)
02:00:00 overcast clouds 16.750 16.750 16.750 56 6.49 m/h 0 %
05:00:00 light rain 13.520 13.520 13.520 66 7.19 m/h 106 %
08:00:00 light rain 13.700 13.700 13.700 79 7.02 m/h 81 %
11:00:00 light rain 13.820 13.820 13.820 81 6.27 m/h 169 %
14:00:00 light rain 14.880 14.880 14.880 67 4.03 m/h 13 %
17:00:00 overcast clouds 16.810 16.810 16.810 54 2.59 m/h 0 %
20:00:00 clear sky 13.700 13.700 13.700 69 4.07 m/h 0 %
23:00:00 clear sky 12.020 12.020 12.020 73 2.63 m/h 0 %
13-Dec-2019 (Fri)
02:00:00 clear sky 10.920 10.920 10.920 79 2.11 m/h 0 %
05:00:00 clear sky 10.200 10.200 10.200 86 1.22 m/h 0 %
08:00:00 clear sky 11.930 11.930 11.930 77 0.94 m/h 0 %
11:00:00 clear sky 17.430 17.430 17.430 50 2.29 m/h 0 %
14:00:00 clear sky 20.620 20.620 20.620 38 4.98 m/h 0 %
17:00:00 clear sky 19.020 19.020 19.020 38 3.19 m/h 0 %
20:00:00 clear sky 16.070 16.070 16.070 46 3.28 m/h 0 %
23:00:00 scattered clouds 15.710 15.710 15.710 43 3.41 m/h 0 %
14-Dec-2019 (Sat)
02:00:00 few clouds 14.320 14.320 14.320 47 2.34 m/h 0 %
05:00:00 clear sky 13.260 13.260 13.260 52 1.63 m/h 0 %
08:00:00 clear sky 14.230 14.230 14.230 52 0.47 m/h 0 %
11:00:00 few clouds 19.400 19.400 19.400 38 3.87 m/h 0 %
14:00:00 broken clouds 21.590 21.590 21.590 29 3.33 m/h 0 %
17:00:00 scattered clouds 20.040 20.040 20.040 30 2.03 m/h 0 %
20:00:00 clear sky 17.110 17.110 17.110 39 3.03 m/h 0 %
23:00:00 scattered clouds 16.830 16.830 16.830 44 2.62 m/h 0 %
15-Dec-2019 (Sun)
02:00:00 broken clouds 15.400 15.400 15.400 50 2.93 m/h 0 %
05:00:00 broken clouds 14.170 14.170 14.170 55 3.52 m/h 0 %
08:00:00 clear sky 14.340 14.340 14.340 55 3.23 m/h 0 %
11:00:00 clear sky 20.000 20.000 20.000 40 3.06 m/h 0 %
14:00:00 clear sky 21.980 21.980 21.980 32 2.44 m/h 0 %
17:00:00 clear sky 20.680 20.680 20.680 34 2.55 m/h 0 %
20:00:00 clear sky 17.130 17.130 17.130 44 2.25 m/h 0 %
23:00:00 clear sky 15.580 15.580 15.580 49 1.71 m/h 0 %
16-Dec-2019 (Mon)
02:00:00 clear sky 13.960 13.960 13.960 55 0.71 m/h 0 %
05:00:00 clear sky 13.410 13.410 13.410 57 1.3 m/h 0 %
08:00:00 clear sky 14.740 14.740 14.740 52 1.82 m/h 0 %
11:00:00 clear sky 20.150 20.150 20.150 36 1.91 m/h 0 %
14:00:00 clear sky 22.220 22.220 22.220 30 2.69 m/h 0 %
17:00:00 clear sky 20.260 20.260 20.260 34 1.67 m/h 0 %
20:00:00 clear sky 16.900 16.900 16.900 42 1.49 m/h 0 %
23:00:00 clear sky 15.830 15.830 15.830 44 1.13 m/h 0 %


Sadiqabad's Tourist Spots

Historical Places in Sadiqabad

Famous Cities (61)